CheckWX is a tool to help pilots better visualize weather data.  It is not intended as a substitute for an official pre-flight weather briefing.

06:59:30 UTC

KFMH TAF
Cape Cod Coast Guard Air Station Airport
Falmouth, Massachusetts, USA
KFMH 210524Z 2106/2206 00000KT P6SM SKC FM210900 32003KT P6SM SKC FM211500 01003KT P6SM SKC FM211700 13004KT P6SM SKC FM212000 19005KT P6SM SKC

Sep-21@
06:00 UTC

Sep-21 @ 06:00 UTC

Sep-21@
09:00 UTC

Sep-21 @ 09:00 UTC

KFMH 210524Z 2106/2206 00000KT P6SM SKC
Cloud Levels
  • Clear skies

Sep-21@
09:00 UTC

Sep-21 @ 09:00 UTC

Sep-21@
15:00 UTC

Sep-21 @ 15:00 UTC

FM210900 32003KT P6SM SKC

From

From Standard forecast or significant change

Wind
  • 320° at 3 KTS
Cloud Levels
  • Clear skies

Sep-21@
15:00 UTC

Sep-21 @ 15:00 UTC

Sep-21@
17:00 UTC

Sep-21 @ 17:00 UTC

FM211500 01003KT P6SM SKC

From

From Standard forecast or significant change

Wind
  • 010° at 3 KTS
Cloud Levels
  • Clear skies

Sep-21@
17:00 UTC

Sep-21 @ 17:00 UTC

Sep-21@
20:00 UTC

Sep-21 @ 20:00 UTC

FM211700 13004KT P6SM SKC

From

From Standard forecast or significant change

Wind
  • 130° at 4 KTS
Cloud Levels
  • Clear skies

Sep-21@
20:00 UTC

Sep-21 @ 20:00 UTC

Sep-22@
06:00 UTC

Sep-22 @ 06:00 UTC

FM212000 19005KT P6SM SKC

From

From Standard forecast or significant change

Wind
  • 190° at 5 KTS
Cloud Levels
  • Clear skies